Time;durP1;ratioP1;P1;durP2;ratioP2;P2;SDS_P1;SDS_P2;PMS_P1;PMS_P2;Temp;Humidity;BMP_temperature;BMP_pressure;BME280_temperature;BME280_humidity;BME280_pressure;Samples;Min_cycle;Max_cycle;Signal;HPM_P1;HPM_P2
2023/12/17 00:01:22;;;;;;;159.55;5.85;;;;;;;19.52;61.32;101397.66;7307160;19;130285;-37
2023/12/17 00:03:47;;;;;;;57.25;2.55;;;;;;;19.56;61.62;101399.16;7310012;19;129277;-37
2023/12/17 00:06:12;;;;;;;75.85;3.17;;;;;;;19.53;61.83;101394.13;7305729;19;129879;-37
2023/12/17 00:08:38;;;;;;;159.95;6.00;;;;;;;19.56;61.38;101414.81;7309201;19;130153;-38
2023/12/17 00:11:03;;;;;;;85.28;3.60;;;;;;;19.55;61.13;101407.94;7308943;19;130481;-37
2023/12/17 00:13:29;;;;;;;105.57;4.25;;;;;;;19.56;61.06;101407.84;7310969;19;129260;-38
2023/12/17 00:15:54;;;;;;;57.35;2.65;;;;;;;19.57;61.32;101411.31;7310436;19;128937;-37
2023/12/17 00:18:20;;;;;;;106.80;4.03;;;;;;;19.42;60.80;101382.50;7310664;19;130389;-36
2023/12/17 00:20:45;;;;;;;68.10;2.80;;;;;;;19.57;61.29;101408.69;7310070;19;130732;-37
2023/12/17 00:23:11;;;;;;;34.97;1.70;;;;;;;19.57;61.21;101406.09;7310867;19;129044;-38
2023/12/17 00:25:36;;;;;;;128.38;5.13;;;;;;;19.56;60.49;101407.00;7307487;19;128960;-35
2023/12/17 00:28:01;;;;;;;212.45;8.18;;;;;;;19.57;60.65;101411.31;7310091;19;130254;-37
2023/12/17 00:30:27;;;;;;;85.57;3.50;;;;;;;19.59;61.05;101405.06;7308621;19;130304;-37
2023/12/17 00:32:52;;;;;;;55.63;2.63;;;;;;;19.43;60.36;101378.97;7311186;19;128988;-37
2023/12/17 00:35:18;;;;;;;50.00;2.28;;;;;;;19.53;60.71;101399.34;7311589;19;130330;-36
2023/12/17 00:37:43;;;;;;;119.90;4.45;;;;;;;19.54;60.74;101396.66;7312016;19;130166;-37
2023/12/17 00:40:09;;;;;;;48.55;2.05;;;;;;;19.55;60.23;101402.72;7316332;19;130692;-37
2023/12/17 00:42:34;;;;;;;100.97;4.30;;;;;;;19.36;60.32;101367.19;7316372;19;128962;-37
2023/12/17 00:44:59;;;;;;;80.45;3.13;;;;;;;19.54;60.26;101390.56;7316539;19;128954;-37
2023/12/17 00:47:25;;;;;;;111.82;4.10;;;;;;;19.44;60.12;101375.44;7316780;19;130093;-37
2023/12/17 00:49:51;;;;;;;62.88;2.78;;;;;;;19.56;60.58;101375.69;7316652;19;130810;-37
2023/12/17 00:52:17;;;;;;;64.60;2.83;;;;;;;19.56;59.83;101373.09;7315198;19;129352;-37
2023/12/17 00:54:43;;;;;;;73.93;3.05;;;;;;;19.54;60.56;101374.94;7317718;19;129686;-37
2023/12/17 00:57:08;;;;;;;154.70;5.95;;;;;;;19.51;60.33;101380.31;7317162;19;130609;-37
2023/12/17 00:59:33;;;;;;;69.72;3.13;;;;;;;19.56;59.68;101375.69;7315557;19;130344;-35
2023/12/17 01:01:59;;;;;;;55.83;2.38;;;;;;;19.54;60.48;101373.16;7317376;19;128792;-37
2023/12/17 01:04:24;;;;;;;130.90;4.97;;;;;;;19.55;60.36;101367.03;7317548;19;129444;-35
2023/12/17 01:06:49;;;;;;;31.92;1.63;;;;;;;19.54;60.52;101360.13;7314142;19;130434;-38
2023/12/17 01:09:15;;;;;;;70.57;3.03;;;;;;;19.55;60.50;101368.81;7315003;19;130355;-37
2023/12/17 01:11:42;;;;;;;67.53;2.90;;;;;;;19.50;59.82;101368.22;7314998;19;129391;-36
2023/12/17 01:14:07;;;;;;;145.10;5.15;;;;;;;19.55;59.75;101368.81;7314757;19;129447;-37
2023/12/17 01:16:33;;;;;;;84.90;3.60;;;;;;;19.54;60.15;101364.50;7316979;19;129698;-37
2023/12/17 01:18:58;;;;;;;87.00;3.70;;;;;;;19.54;59.97;101369.72;7313939;19;131540;-37
2023/12/17 01:21:23;;;;;;;53.78;2.55;;;;;;;19.36;59.91;101341.13;7314265;19;128925;-36
2023/12/17 01:23:49;;;;;;;126.20;4.80;;;;;;;19.55;60.11;101368.81;7316032;19;129164;-37
2023/12/17 01:26:19;;;;;;;22.13;1.30;;;;;;;19.54;60.31;101372.31;7314125;19;130638;-37
2023/12/17 01:28:44;;;;;;;96.13;4.07;;;;;;;19.54;59.89;101375.78;7314578;19;130504;-36
2023/12/17 01:31:09;;;;;;;79.88;3.10;;;;;;;19.55;60.06;101387.06;7311463;19;129684;-36
2023/12/17 01:33:35;;;;;;;148.20;5.70;;;;;;;19.54;60.28;101394.03;7316018;19;129147;-36
2023/12/17 01:36:00;;;;;;;23.92;1.55;;;;;;;19.53;60.17;101386.28;7315883;19;129032;-37
2023/12/17 01:38:25;;;;;;;52.70;2.28;;;;;;;19.53;60.14;101394.13;7314558;19;130325;-37
2023/12/17 01:40:51;;;;;;;78.65;3.17;;;;;;;19.53;59.75;101388.91;7312372;19;128897;-37
2023/12/17 01:43:16;;;;;;;96.10;3.65;;;;;;;19.53;59.47;101386.28;7316305;19;129137;-37
2023/12/17 01:45:41;;;;;;;45.25;2.25;;;;;;;19.30;61.26;101357.06;7313952;19;130246;-36
2023/12/17 01:48:07;;;;;;;75.25;3.05;;;;;;;19.36;61.45;101372.41;7313941;19;131054;-37
2023/12/17 01:50:32;;;;;;;152.23;5.57;;;;;;;19.36;61.70;101377.63;7312791;19;130761;-34
2023/12/17 01:52:58;;;;;;;113.50;4.22;;;;;;;19.12;62.28;101349.38;7315325;19;131532;-35
2023/12/17 01:55:24;;;;;;;59.60;2.42;;;;;;;19.22;62.78;101385.28;7315418;19;130181;-37
2023/12/17 01:57:50;;;;;;;137.30;5.37;;;;;;;19.16;62.27;101377.81;7312478;19;131060;-37
2023/12/17 02:00:16;;;;;;;126.90;4.63;;;;;;;19.11;62.93;101371.97;7313667;19;129113;-37
2023/12/17 02:02:43;;;;;;;75.07;3.00;;;;;;;19.09;63.08;101368.59;7314799;19;129497;-38
2023/12/17 02:05:08;;;;;;;56.03;2.47;;;;;;;19.04;63.07;101354.97;7313627;19;130230;-37
2023/12/17 02:07:34;;;;;;;102.95;4.38;;;;;;;19.01;63.15;101347.31;7314188;19;130161;-37
2023/12/17 02:09:59;;;;;;;104.53;4.15;;;;;;;18.96;63.03;101345.88;7312689;19;129043;-37
2023/12/17 02:12:27;;;;;;;88.68;3.40;;;;;;;18.96;63.52;101354.53;7313744;19;129673;-37
2023/12/17 02:14:52;;;;;;;61.13;2.75;;;;;;;18.84;62.86;101326.50;7314594;19;130750;-37
2023/12/17 02:17:25;;;;;;;85.53;3.70;;;;;;;18.94;63.86;101353.78;7314307;19;130318;-37
2023/12/17 02:19:51;;;;;;;108.13;4.03;;;;;;;18.94;62.95;101353.78;7311909;19;129625;-37
2023/12/17 02:22:16;;;;;;;109.95;4.18;;;;;;;18.90;63.69;101347.06;7314107;19;130101;-38
2023/12/17 02:24:41;;;;;;;106.40;4.47;;;;;;;18.92;63.60;101349.56;7313529;19;130223;-36
2023/12/17 02:27:07;;;;;;;94.32;3.80;;;;;;;18.79;63.66;101333.72;7310925;19;130118;-37
2023/12/17 02:29:32;;;;;;;186.02;6.57;;;;;;;18.87;63.60;101359.38;7311400;19;129531;-37
2023/12/17 02:31:57;;;;;;;41.47;2.08;;;;;;;18.92;62.87;101371.28;7315656;19;129242;-37
2023/12/17 02:34:23;;;;;;;53.60;2.45;;;;;;;18.90;63.42;101365.28;7313194;19;129539;-37
2023/12/17 02:36:48;;;;;;;47.85;2.05;;;;;;;18.89;63.84;101360.97;7314143;19;130900;-37
2023/12/17 02:39:14;;;;;;;147.65;5.50;;;;;;;18.91;63.37;101364.34;7313201;19;129062;-37
2023/12/17 02:41:39;;;;;;;83.40;3.35;;;;;;;18.89;63.93;101365.38;7313348;19;129063;-37
2023/12/17 02:44:05;;;;;;;76.47;3.20;;;;;;;18.90;63.49;101357.47;7312950;19;130106;-38
2023/12/17 02:46:30;;;;;;;41.30;1.85;;;;;;;18.89;63.37;101349.75;7310934;19;130349;-37
2023/12/17 02:48:55;;;;;;;106.95;4.10;;;;;;;18.89;63.45;101355.78;7314052;19;129404;-37
2023/12/17 02:51:21;;;;;;;29.25;1.65;;;;;;;18.89;63.12;101374.00;7312255;19;129332;-37
2023/12/17 02:53:46;;;;;;;122.22;4.82;;;;;;;18.89;63.55;101371.41;7312864;19;129411;-36
2023/12/17 02:56:11;;;;;;;128.10;4.85;;;;;;;18.87;63.75;101368.06;7311040;19;129189;-36
2023/12/17 02:58:39;;;;;;;165.10;6.38;;;;;;;18.90;63.75;101365.28;7309606;19;130113;-37
2023/12/17 03:01:04;;;;;;;68.50;2.85;;;;;;;18.88;63.63;101359.31;7310093;19;128971;-37
2023/12/17 03:03:29;;;;;;;53.25;2.17;;;;;;;18.91;63.60;101343.50;7312241;19;130935;-36
2023/12/17 03:05:55;;;;;;;114.28;4.25;;;;;;;18.91;63.85;101327.88;7311256;19;130355;-37
2023/12/17 03:08:20;;;;;;;112.93;4.20;;;;;;;18.91;63.43;101329.63;7312880;19;129413;-36
2023/12/17 03:10:45;;;;;;;104.80;4.07;;;;;;;18.89;63.61;101334.09;7311404;19;128889;-38
2023/12/17 03:13:11;;;;;;;63.75;2.63;;;;;;;18.88;63.46;101341.06;7312987;19;130583;-37
2023/12/17 03:15:37;;;;;;;152.48;5.80;;;;;;;18.91;63.17;101338.28;7312849;19;130203;-35
2023/12/17 03:18:03;;;;;;;103.95;4.70;;;;;;;18.92;63.34;101339.16;7312748;19;129257;-37
2023/12/17 03:20:28;;;;;;;69.57;2.97;;;;;;;18.90;63.96;101341.84;7311737;19;129081;-37
2023/12/17 03:22:54;;;;;;;64.68;2.75;;;;;;;18.89;63.60;101337.53;7312592;19;130290;-37
2023/12/17 03:25:19;;;;;;;149.50;5.55;;;;;;;18.91;63.63;101340.91;7310650;19;130463;-37
2023/12/17 03:27:44;;;;;;;92.45;3.78;;;;;;;18.93;63.76;101325.19;7313599;19;129396;-37
2023/12/17 03:30:10;;;;;;;31.20;1.77;;;;;;;18.91;63.59;101321.81;7311103;19;129158;-37
2023/12/17 03:32:35;;;;;;;88.25;3.70;;;;;;;18.91;63.44;101329.63;7312260;19;129717;-37
2023/12/17 03:35:01;;;;;;;135.60;4.97;;;;;;;18.92;62.97;101321.75;7312349;19;129749;-37
2023/12/17 03:37:26;;;;;;;93.25;3.72;;;;;;;18.91;63.25;101321.81;7312491;19;128845;-37
2023/12/17 03:39:52;;;;;;;69.03;2.83;;;;;;;18.90;63.69;101321.00;7310810;19;129303;-37
2023/12/17 03:42:18;;;;;;;91.95;3.78;;;;;;;18.87;63.28;101310.72;7311676;19;129961;-37
2023/12/17 03:44:44;;;;;;;122.47;4.95;;;;;;;18.89;63.30;101308.88;7310604;19;130420;-37
2023/12/17 03:47:10;;;;;;;243.38;10.23;;;;;;;18.76;63.15;101281.78;7309905;19;128923;-37
2023/12/17 03:49:35;;;;;;;54.22;2.58;;;;;;;18.92;63.31;101307.88;7309394;19;129014;-36
2023/12/17 03:52:03;;;;;;;83.20;3.38;;;;;;;18.91;63.58;101301.81;7311561;19;130184;-37
2023/12/17 03:54:28;;;;;;;171.05;6.43;;;;;;;18.93;62.92;101299.97;7310415;19;131137;-37
2023/12/17 03:56:54;;;;;;;57.30;2.33;;;;;;;18.93;63.16;101283.47;7312455;19;128999;-36
2023/12/17 03:59:19;;;;;;;124.50;4.65;;;;;;;18.95;62.91;101287.72;7309343;19;130743;-37
2023/12/17 04:01:47;;;;;;;159.75;5.95;;;;;;;18.93;63.26;101286.94;7308648;19;129786;-36
2023/12/17 04:04:13;;;;;;;95.30;3.60;;;;;;;18.94;62.93;101280.78;7312198;19;130650;-36
2023/12/17 04:06:43;;;;;;;71.63;3.00;;;;;;;18.92;63.51;101267.03;7305365;19;129922;-37
2023/12/17 04:09:09;;;;;;;107.55;4.18;;;;;;;18.92;62.90;101280.06;7310300;19;129415;-36
2023/12/17 04:11:34;;;;;;;90.60;3.70;;;;;;;18.92;63.33;101277.47;7311183;19;129929;-37
2023/12/17 04:14:00;;;;;;;117.50;4.43;;;;;;;18.92;63.80;101271.41;7311510;19;130108;-37
2023/12/17 04:16:26;;;;;;;67.47;3.03;;;;;;;18.92;63.67;101277.47;7311671;19;129304;-37
2023/12/17 04:18:51;;;;;;;86.65;3.60;;;;;;;18.95;62.85;101279.91;7310807;19;129663;-38
2023/12/17 04:21:16;;;;;;;117.50;4.15;;;;;;;18.98;62.71;101282.31;7308582;19;130400;-37
2023/12/17 04:23:43;;;;;;;62.90;3.08;;;;;;;18.95;62.79;101284.25;7309901;19;132067;-38
2023/12/17 04:26:11;;;;;;;119.75;4.55;;;;;;;18.92;63.45;101287.88;7310067;19;130227;-36
2023/12/17 04:28:36;;;;;;;59.42;2.65;;;;;;;18.96;62.86;101289.38;7309628;19;129674;-37
2023/12/17 04:31:01;;;;;;;175.85;6.45;;;;;;;18.94;63.18;101280.78;7307162;19;130167;-37
2023/12/17 04:33:27;;;;;;;96.10;3.85;;;;;;;18.95;63.57;101276.44;7311666;19;130440;-37
2023/12/17 04:35:52;;;;;;;87.30;3.60;;;;;;;18.97;62.61;101279.81;7310641;19;129249;-37
2023/12/17 04:38:17;;;;;;;52.38;2.42;;;;;;;18.96;63.27;101272.91;7310003;19;128966;-37
2023/12/17 04:40:45;;;;;;;157.82;5.97;;;;;;;18.94;63.13;101275.59;7308196;19;130107;-38
2023/12/17 04:43:11;;;;;;;58.92;2.60;;;;;;;19.23;62.46;101272.25;7309694;19;130296;-37
2023/12/17 04:45:36;;;;;;;103.13;4.17;;;;;;;19.73;60.77;101271.25;7308994;19;128882;-37
2023/12/17 04:48:01;;;;;;;127.38;5.25;;;;;;;20.31;59.23;101274.81;7309652;19;129403;-37
2023/12/17 04:50:27;;;;;;;136.07;4.85;;;;;;;20.96;56.46;101276.88;7308305;19;130931;-37
2023/12/17 04:52:52;;;;;;;85.20;3.35;;;;;;;21.47;55.24;101271.03;7310100;19;129790;-36
2023/12/17 04:55:18;;;;;;;14.23;0.88;;;;;;;21.83;54.36;101268.66;7309850;19;130010;-37
2023/12/17 04:57:43;;;;;;;140.52;5.30;;;;;;;22.09;53.28;101263.50;7306085;19;129267;-37
2023/12/17 05:00:09;;;;;;;148.02;5.53;;;;;;;22.33;53.10;101269.72;7306675;19;130930;-36
2023/12/17 05:02:34;;;;;;;66.03;2.73;;;;;;;22.42;52.08;101271.69;7307860;19;130602;-36
2023/12/17 05:05:00;;;;;;;156.85;6.22;;;;;;;22.54;52.06;101265.66;7307067;19;129065;-37
2023/12/17 05:07:25;;;;;;;92.30;3.58;;;;;;;22.47;51.64;101269.59;7308265;19;129095;-37
2023/12/17 05:09:52;;;;;;;154.48;5.57;;;;;;;22.38;52.47;101268.44;7306346;19;130309;-36
2023/12/17 05:12:18;;;;;;;83.93;3.30;;;;;;;22.30;52.76;101272.53;7308682;19;130369;-37
2023/12/17 05:14:43;;;;;;;108.88;4.40;;;;;;;22.17;52.45;101272.50;7307811;19;129277;-37
2023/12/17 05:17:08;;;;;;;97.18;3.70;;;;;;;22.03;53.46;101270.00;7308361;19;128865;-36
2023/12/17 05:19:34;;;;;;;98.10;3.70;;;;;;;21.90;53.62;101269.94;7308490;19;130825;-37
2023/12/17 05:21:59;;;;;;;64.22;2.70;;;;;;;21.78;54.05;101275.97;7308162;19;130361;-37
2023/12/17 05:24:24;;;;;;;117.57;4.68;;;;;;;21.66;53.85;101271.53;7311265;19;129812;-36
2023/12/17 05:26:50;;;;;;;178.98;6.75;;;;;;;21.50;54.62;101276.06;7312982;19;129041;-35
2023/12/17 05:29:15;;;;;;;127.53;4.85;;;;;;;21.36;54.94;101277.88;7314831;19;129599;-37
2023/12/17 05:31:41;;;;;;;55.35;2.40;;;;;;;21.23;54.97;101276.97;7313982;19;130554;-37
2023/12/17 05:34:08;;;;;;;117.47;4.53;;;;;;;21.08;55.34;101277.94;7315844;19;129709;-36
2023/12/17 05:36:34;;;;;;;135.27;4.88;;;;;;;20.98;56.31;101285.50;7315523;19;129596;-36
2023/12/17 05:38:59;;;;;;;59.17;2.42;;;;;;;20.83;56.84;101294.25;7313648;19;129119;-37
2023/12/17 05:41:25;;;;;;;70.70;2.73;;;;;;;20.74;57.02;101294.84;7312437;19;130166;-36
2023/12/17 05:43:51;;;;;;;89.70;3.88;;;;;;;20.62;56.93;101295.56;7315662;19;129200;-38
2023/12/17 05:46:16;;;;;;;143.10;5.28;;;;;;;20.52;57.47;101290.06;7313455;19;129354;-36
2023/12/17 05:48:41;;;;;;;64.47;2.60;;;;;;;20.40;57.87;101301.22;7315557;19;130038;-36
2023/12/17 05:51:08;;;;;;;24.65;1.20;;;;;;;20.35;58.02;101312.88;7312312;19;129640;-37
2023/12/17 05:53:33;;;;;;;88.28;3.60;;;;;;;20.11;58.07;101282.94;7315192;19;129385;-36
2023/12/17 05:56:00;;;;;;;102.53;3.90;;;;;;;20.17;58.31;101303.50;7314357;19;129201;-37
2023/12/17 05:58:25;;;;;;;75.93;3.17;;;;;;;20.13;58.27;101317.63;7314520;19;130890;-37
2023/12/17 06:00:51;;;;;;;139.18;5.53;;;;;;;20.06;58.57;101321.53;7312194;19;129548;-37
2023/12/17 06:03:16;;;;;;;52.20;2.20;;;;;;;19.99;58.72;101317.56;7315178;19;128897;-37
2023/12/17 06:05:41;;;;;;;146.93;5.63;;;;;;;19.93;59.00;101321.38;7312440;19;129024;-37
2023/12/17 06:08:07;;;;;;;86.75;3.45;;;;;;;19.88;59.04;101317.34;7313531;19;129717;-37
2023/12/17 06:10:32;;;;;;;56.22;2.22;;;;;;;19.84;59.20;101321.06;7313533;19;131072;-37
2023/12/17 06:12:57;;;;;;;145.13;5.50;;;;;;;19.65;59.41;101312.59;7314306;19;129282;-36
2023/12/17 06:15:23;;;;;;;91.85;3.40;;;;;;;19.73;60.19;101347.78;7315641;19;132244;-36
2023/12/17 06:17:48;;;;;;;107.70;4.38;;;;;;;19.72;59.97;101347.84;7313386;19;129536;-37
2023/12/17 06:20:13;;;;;;;21.67;1.08;;;;;;;19.70;60.22;101345.31;7312345;19;130354;-37
2023/12/17 06:22:39;;;;;;;127.90;4.70;;;;;;;19.68;60.58;101347.19;7314334;19;129587;-36
2023/12/17 06:25:04;;;;;;;79.65;3.08;;;;;;;19.64;60.62;101353.47;7315363;19;130657;-37
2023/12/17 06:27:31;;;;;;;41.45;1.90;;;;;;;19.63;60.38;101345.75;7312152;19;129343;-37
2023/12/17 06:29:56;;;;;;;102.97;4.07;;;;;;;19.63;60.31;101356.19;7311697;19;130556;-39
2023/12/17 06:32:22;;;;;;;122.05;4.63;;;;;;;19.59;60.93;101346.81;7312999;19;129068;-38
2023/12/17 06:34:47;;;;;;;93.22;3.70;;;;;;;19.58;61.28;101360.81;7312124;19;129779;-37
2023/12/17 06:37:12;;;;;;;112.47;4.47;;;;;;;19.56;61.12;101362.66;7312694;19;130065;-37
2023/12/17 06:39:42;;;;;;;135.98;5.45;;;;;;;19.58;60.58;101360.81;7310363;19;130357;-37
2023/12/17 06:42:09;;;;;;;142.93;5.15;;;;;;;19.56;60.67;101355.66;7311398;19;129030;-37
2023/12/17 06:44:34;;;;;;;103.97;4.18;;;;;;;19.58;61.15;101355.59;7309246;19;130537;-37
2023/12/17 06:46:59;;;;;;;95.60;3.65;;;;;;;19.56;60.45;101363.50;7310407;19;129103;-37
2023/12/17 06:49:24;;;;;;;59.47;2.58;;;;;;;19.55;61.16;101367.03;7308872;19;129172;-37
2023/12/17 06:51:50;;;;;;;144.13;5.57;;;;;;;19.57;60.82;101369.56;7312340;19;129268;-36
2023/12/17 06:54:15;;;;;;;57.63;2.25;;;;;;;19.54;60.50;101359.28;7311750;19;129084;-37
2023/12/17 06:56:42;;;;;;;90.47;3.72;;;;;;;19.55;60.40;101366.19;7307358;19;130362;-37
2023/12/17 06:59:07;;;;;;;160.05;5.88;;;;;;;19.55;60.91;101374.03;7309076;19;130582;-43
2023/12/17 07:01:35;;;;;;;178.05;6.32;;;;;;;19.54;60.50;101374.94;7308028;19;129101;-36
2023/12/17 07:04:04;;;;;;;167.55;6.40;;;;;;;19.38;60.34;101343.63;7312044;19;128981;-37
2023/12/17 07:06:30;;;;;;;138.60;5.22;;;;;;;19.49;60.58;101359.53;7307207;19;130265;-36
2023/12/17 07:08:56;;;;;;;130.98;4.97;;;;;;;19.50;60.61;101357.78;7310092;19;130744;-37
2023/12/17 07:11:22;;;;;;;181.00;6.53;;;;;;;19.54;60.83;101380.13;7308191;19;130071;-36
2023/12/17 07:13:49;;;;;;;71.85;2.83;;;;;;;19.55;61.36;101376.63;7311189;19;130005;-38
2023/12/17 07:16:24;;;;;;;106.82;4.30;;;;;;;19.38;61.57;101354.91;7310109;19;130501;-38
2023/12/17 07:18:50;;;;;;;106.22;4.13;;;;;;;19.48;60.65;101383.09;7304301;19;131328;-38
2023/12/17 07:21:16;;;;;;;427.45;16.52;;;;;;;19.46;60.82;101388.41;7306111;19;130919;-40
2023/12/17 07:23:42;;;;;;;187.20;6.63;;;;;;;19.44;61.20;101388.47;7302516;19;129600;-40
2023/12/17 07:26:07;;;;;;;167.95;6.10;;;;;;;19.38;61.71;101388.81;7300762;19;130588;-38
2023/12/17 07:28:32;;;;;;;279.85;10.88;;;;;;;19.24;61.57;101356.53;7302558;19;129309;-41
2023/12/17 07:30:58;;;;;;;207.82;7.80;;;;;;;19.39;61.02;101380.06;7301967;19;129372;-40
2023/12/17 07:33:23;;;;;;;111.47;4.35;;;;;;;19.42;61.52;101376.44;7307926;19;130257;-38
2023/12/17 07:35:48;;;;;;;139.18;5.00;;;;;;;19.48;61.08;101382.16;7301494;19;129560;-38
2023/12/17 07:38:14;;;;;;;117.20;4.35;;;;;;;19.55;61.12;101381.84;7305837;19;129983;-38
2023/12/17 07:40:39;;;;;;;224.50;8.20;;;;;;;19.64;60.20;101386.53;7304911;19;129566;-40
2023/12/17 07:43:05;;;;;;;137.25;4.95;;;;;;;19.62;59.96;101370.16;7302133;19;130757;-38
2023/12/17 07:45:32;;;;;;;165.40;5.97;;;;;;;19.82;59.57;101390.75;7301073;19;129695;-37
2023/12/17 07:47:58;;;;;;;224.55;8.10;;;;;;;19.93;59.14;101391.03;7298918;19;130525;-36
2023/12/17 07:50:24;;;;;;;143.82;5.10;;;;;;;20.02;59.46;101385.28;7301956;19;129544;-38
2023/12/17 07:52:49;;;;;;;113.32;4.47;;;;;;;20.13;59.07;101385.53;7306638;19;129653;-37
2023/12/17 07:55:15;;;;;;;97.32;3.67;;;;;;;20.22;58.66;101379.81;7300211;19;130559;-38
2023/12/17 07:57:40;;;;;;;179.02;6.43;;;;;;;20.25;58.62;101379.63;7306554;19;131134;-37
2023/12/17 08:00:07;;;;;;;384.15;14.68;;;;;;;20.33;58.28;101382.63;7297557;19;129498;-37
2023/12/17 08:02:33;;;;;;;140.48;5.20;;;;;;;20.33;57.74;101386.09;7304102;19;129895;-38
2023/12/17 08:04:58;;;;;;;220.60;8.35;;;;;;;20.38;58.21;101385.81;7303870;19;130160;-38
2023/12/17 08:07:24;;;;;;;133.23;4.78;;;;;;;20.37;57.74;101397.22;7302031;19;130304;-36
2023/12/17 08:09:49;;;;;;;646.90;26.70;;;;;;;20.35;57.74;101391.22;7297788;19;132014;-40
2023/12/17 08:12:14;;;;;;;118.32;4.53;;;;;;;20.30;58.30;101399.34;7303223;19;130931;-37
2023/12/17 08:14:41;;;;;;;126.22;4.65;;;;;;;20.24;57.91;101398.84;7304182;19;129647;-39
2023/12/17 08:17:07;;;;;;;;;;;;;;;20.20;58.15;101405.16;7305686;19;130749;-38
2023/12/17 08:19:32;;;;;;;78.93;3.10;;;;;;;20.10;58.61;101402.19;7304864;19;129097;-38
2023/12/17 08:21:57;;;;;;;133.93;5.32;;;;;;;20.06;58.62;101418.13;7305099;19;129450;-37
2023/12/17 08:24:23;;;;;;;138.05;5.45;;;;;;;20.02;58.40;101412.22;7304814;19;130760;-38
2023/12/17 08:26:50;;;;;;;137.43;5.22;;;;;;;19.80;59.01;101377.78;7305663;19;130391;-40
2023/12/17 08:29:17;;;;;;;105.18;4.28;;;;;;;19.91;59.35;101400.69;7309236;19;129294;-37
2023/12/17 08:31:45;;;;;;;126.20;4.87;;;;;;;19.87;59.56;101404.41;7303558;19;129619;-41
2023/12/17 08:34:11;;;;;;;100.63;4.07;;;;;;;19.79;59.40;101397.00;7301800;19;131100;-36
2023/12/17 08:36:36;;;;;;;145.15;5.47;;;;;;;19.58;59.23;101366.03;7303928;19;132104;-40
2023/12/17 08:39:05;;;;;;;245.75;9.25;;;;;;;19.72;59.68;101397.44;7303074;19;129609;-39
2023/12/17 08:41:31;;;;;;;80.15;3.45;;;;;;;19.67;59.54;101389.84;7300973;19;129240;-39
2023/12/17 08:43:56;;;;;;;196.75;7.50;;;;;;;19.67;59.91;101387.22;7302567;19;130219;-37
2023/12/17 08:46:22;;;;;;;221.95;8.15;;;;;;;19.66;60.58;101388.16;7301006;19;130555;-43
2023/12/17 08:48:47;;;;;;;135.50;5.20;;;;;;;19.63;60.33;101392.69;7298715;19;129435;-37
2023/12/17 08:51:12;;;;;;;90.15;3.67;;;;;;;19.64;60.31;101402.19;7300190;19;129403;-39
2023/12/17 08:53:39;;;;;;;133.00;5.57;;;;;;;19.65;60.66;101388.25;7302164;19;129128;-37
2023/12/17 08:56:08;;;;;;;294.45;11.45;;;;;;;19.59;60.27;101378.13;7300850;19;129634;-38
2023/12/17 08:58:33;;;;;;;118.22;4.70;;;;;;;19.58;60.90;101371.25;7304351;19;129111;-38
2023/12/17 09:00:58;;;;;;;266.45;10.40;;;;;;;19.55;61.43;101364.44;7299590;19;129597;-38
2023/12/17 09:03:24;;;;;;;222.88;8.43;;;;;;;19.58;61.11;101366.03;7297825;19;129885;-40
2023/12/17 09:05:49;;;;;;;206.02;8.05;;;;;;;19.57;60.56;101366.97;7299807;19;131255;-39
2023/12/17 09:08:14;;;;;;;220.57;8.38;;;;;;;19.57;61.04;101366.97;7306917;19;129212;-39
2023/12/17 09:10:40;;;;;;;144.82;5.75;;;;;;;19.57;60.90;101375.59;7303442;19;129774;-39
2023/12/17 09:13:05;;;;;;;217.70;8.40;;;;;;;19.58;60.52;101373.84;7307018;19;130912;-37
2023/12/17 09:15:31;;;;;;;198.80;7.45;;;;;;;19.55;61.00;101371.41;7305712;19;131151;-37
2023/12/17 09:17:56;;;;;;;174.43;7.13;;;;;;;19.56;61.37;101368.72;7313038;19;128877;-39
2023/12/17 09:20:22;;;;;;;138.80;5.50;;;;;;;19.56;60.72;101370.47;7301803;19;130289;-38
2023/12/17 09:22:47;;;;;;;206.95;7.82;;;;;;;19.42;60.14;101335.56;7305349;19;131148;-40
2023/12/17 09:25:12;;;;;;;239.60;9.10;;;;;;;19.57;60.70;101354.72;7306232;19;131022;-43
2023/12/17 09:27:38;;;;;;;104.55;4.68;;;;;;;19.59;60.99;101352.03;7305056;19;130291;-38
2023/12/17 09:30:06;;;;;;;149.87;6.97;;;;;;;19.59;60.38;101341.59;7296601;19;131539;-37
2023/12/17 09:32:32;;;;;;;223.80;8.70;;;;;;;19.43;60.09;101315.53;7302159;19;130773;-42
2023/12/17 09:34:57;;;;;;;238.32;9.25;;;;;;;19.56;60.45;101332.19;7303986;19;131165;-41
2023/12/17 09:37:22;;;;;;;187.43;7.53;;;;;;;19.58;60.31;101343.41;7305813;19;130288;-42
2023/12/17 09:39:48;;;;;;;180.23;7.22;;;;;;;19.56;60.77;101347.84;7304944;19;130719;-38
2023/12/17 09:42:17;;;;;;;206.40;7.90;;;;;;;19.55;60.46;101342.72;7302282;19;131178;-43
2023/12/17 09:44:43;;;;;;;298.65;12.32;;;;;;;19.53;61.60;101344.56;7301395;19;130478;-43
2023/12/17 09:47:08;;;;;;;214.80;8.30;;;;;;;19.50;61.94;101342.13;7297898;19;131774;-37
2023/12/17 09:49:34;;;;;;;151.13;5.85;;;;;;;19.45;61.96;101348.41;7297367;19;130625;-39
2023/12/17 09:52:06;;;;;;;278.38;10.32;;;;;;;19.27;61.45;101320.69;7298777;19;130740;-42
2023/12/17 09:54:31;;;;;;;234.55;10.25;;;;;;;19.33;54.72;101340.44;7300711;19;130777;-42
2023/12/17 09:56:57;;;;;;;150.80;7.75;;;;;;;19.30;51.11;101341.41;7296295;19;131822;-39
2023/12/17 09:59:23;;;;;;;207.05;9.75;;;;;;;19.30;49.91;101336.22;7298656;19;131060;-39
2023/12/17 10:01:48;;;;;;;286.33;12.27;;;;;;;19.36;50.32;101335.03;7299323;19;130526;-39
2023/12/17 10:04:13;;;;;;;182.07;8.88;;;;;;;19.49;51.15;101328.22;7300739;19;130338;-41
2023/12/17 10:06:40;;;;;;;184.40;8.88;;;;;;;19.64;51.35;101326.53;7294478;19;130409;-37
2023/12/17 10:09:06;;;;;;;227.23;12.05;;;;;;;19.72;50.53;101295.66;7297937;19;129552;-41
2023/12/17 10:11:32;;;;;;;253.00;11.02;;;;;;;20.02;50.35;101320.00;7299136;19;130989;-39
2023/12/17 10:13:59;;;;;;;213.57;10.23;;;;;;;20.24;48.45;101318.72;7299392;19;129717;-38
2023/12/17 10:16:26;;;;;;;170.30;8.57;;;;;;;20.43;47.87;101308.03;7301389;19;129833;-39
2023/12/17 10:18:51;;;;;;;179.60;9.05;;;;;;;20.71;46.42;101310.69;7300050;19;129429;-39
2023/12/17 10:21:17;;;;;;;288.45;13.38;;;;;;;20.89;44.95;101293.06;7298583;19;131150;-36
2023/12/17 10:23:46;;;;;;;212.63;9.35;;;;;;;21.08;45.40;101296.22;7299328;19;130857;-39
2023/12/17 10:26:12;;;;;;;131.25;7.43;;;;;;;21.18;46.20;101299.97;7304235;19;129497;-37
2023/12/17 10:28:42;;;;;;;124.40;6.50;;;;;;;21.38;46.86;101297.78;7300014;19;129971;-39
2023/12/17 10:31:10;;;;;;;285.02;12.57;;;;;;;21.45;47.03;101267.66;7295923;19;131298;-40
2023/12/17 10:33:46;;;;;;;270.73;11.35;;;;;;;21.78;46.85;101294.31;7297472;19;131332;-39
2023/12/17 10:36:11;;;;;;;267.15;11.68;;;;;;;21.88;46.90;101287.53;7299150;19;131310;-38
2023/12/17 10:38:38;;;;;;;172.18;8.07;;;;;;;21.90;46.88;101293.50;7300097;19;129829;-39
2023/12/17 10:41:05;;;;;;;256.08;11.10;;;;;;;21.93;47.45;101300.34;7301928;19;130234;-37
2023/12/17 10:43:32;;;;;;;240.95;10.65;;;;;;;21.85;48.07;101292.97;7296383;19;130004;-41
2023/12/17 10:45:59;;;;;;;153.15;7.57;;;;;;;21.78;48.44;101286.44;7300740;19;129999;-39
2023/12/17 10:48:25;;;;;;;;;;;;;;;21.68;48.96;101285.34;7300537;19;130480;-39
2023/12/17 10:50:51;;;;;;;245.07;10.38;;;;;;;21.46;49.21;101258.88;7295665;19;130562;-41
2023/12/17 10:53:17;;;;;;;231.30;10.10;;;;;;;21.31;49.76;101253.78;7300466;19;130327;-40
2023/12/17 10:55:42;;;;;;;188.77;8.27;;;;;;;21.33;50.01;101278.94;7298126;19;130235;-38
2023/12/17 10:58:15;;;;;;;349.70;15.55;;;;;;;21.14;50.80;101273.16;7293329;19;130203;-39